Time;durP1;ratioP1;P1;durP2;ratioP2;P2;SDS_P1;SDS_P2;PMS_P1;PMS_P2;Temp;Humidity;BMP_temperature;BMP_pressure;BME280_temperature;BME280_humidity;BME280_pressure;Samples;Min_cycle;Max_cycle;Signal;HPM_P1;HPM_P2
2021/12/25 00:01:06;;;;;;;20.77;13.65;;;6.90;99.90;;;;;;6204964;23;20025;-84
2021/12/25 00:03:58;;;;;;;20.48;14.15;;;6.90;99.90;;;;;;6203569;23;20025;-83
2021/12/25 00:06:46;;;;;;;21.53;15.07;;;6.90;99.90;;;;;;6223971;23;20024;-83
2021/12/25 00:09:36;;;;;;;27.70;14.68;;;6.90;99.90;;;;;;6221559;23;20028;-85
2021/12/25 00:12:24;;;;;;;23.10;14.80;;;7.00;99.90;;;;;;6175178;23;20116;-82
2021/12/25 00:15:12;;;;;;;25.80;15.07;;;7.00;99.90;;;;;;6189357;23;20025;-81
2021/12/25 00:18:02;;;;;;;24.63;16.27;;;7.00;99.90;;;;;;6229572;23;20044;-80
2021/12/25 00:20:50;;;;;;;23.40;15.65;;;7.10;99.90;;;;;;6186254;23;20094;-81
2021/12/25 00:23:41;;;;;;;30.15;17.35;;;7.10;99.90;;;;;;6202833;23;20453;-82
2021/12/25 00:32:52;;;;;;;27.08;16.95;;;7.10;99.90;;;;;;6229966;23;20131;-81
2021/12/25 00:35:40;;;;;;;25.15;17.20;;;7.10;99.90;;;;;;6213457;23;20025;-81
2021/12/25 00:38:28;;;;;;;24.35;16.42;;;7.10;99.90;;;;;;6224774;23;20087;-83
2021/12/25 00:41:18;;;;;;;24.48;16.80;;;7.00;99.90;;;;;;6185423;23;20028;-84
2021/12/25 00:44:07;;;;;;;25.45;17.08;;;7.00;99.90;;;;;;6203963;23;20039;-83
2021/12/25 00:46:57;;;;;;;25.77;17.10;;;7.00;99.90;;;;;;6205085;23;20029;-82
2021/12/25 00:49:46;;;;;;;29.08;17.67;;;7.00;99.90;;;;;;6204168;23;20024;-83
2021/12/25 00:52:35;;;;;;;24.83;18.05;;;7.00;99.90;;;;;;6199025;23;20044;-84
2021/12/25 00:55:23;;;;;;;23.45;17.23;;;6.90;99.90;;;;;;6224556;23;20099;-84
2021/12/25 00:58:11;;;;;;;27.73;17.77;;;6.90;99.90;;;;;;6203613;23;20024;-84
2021/12/25 01:00:59;;;;;;;26.73;17.52;;;6.90;99.90;;;;;;6204594;23;20036;-84
2021/12/25 01:03:48;;;;;;;24.77;17.75;;;6.90;99.90;;;;;;6204847;23;20036;-83
2021/12/25 01:06:36;;;;;;;28.33;18.77;;;6.80;99.90;;;;;;6200099;23;20024;-83
2021/12/25 01:09:23;;;;;;;27.42;18.33;;;6.80;99.90;;;;;;6205289;23;20078;-85
2021/12/25 01:12:14;;;;;;;29.67;19.05;;;6.80;99.90;;;;;;6205117;23;20035;-85
2021/12/25 01:15:04;;;;;;;27.35;17.90;;;6.80;99.90;;;;;;6188855;23;20071;-84
2021/12/25 01:18:13;;;;;;;28.20;18.08;;;6.80;99.90;;;;;;6204610;23;20044;-83
2021/12/25 01:36:58;;;;;;;27.90;17.02;;;6.70;99.90;;;;;;6222597;23;20292;-80
2021/12/25 01:48:46;;;;;;;30.98;19.27;;;6.70;99.90;;;;;;6214596;23;20025;-85
2021/12/25 01:51:34;;;;;;;32.33;19.13;;;6.70;99.90;;;;;;6208555;23;20024;-82
2021/12/25 01:54:28;;;;;;;30.10;19.23;;;6.70;99.90;;;;;;6231302;23;20095;-82
2021/12/25 01:57:16;;;;;;;33.47;19.58;;;6.70;99.90;;;;;;6212499;23;20031;-82
2021/12/25 02:00:10;;;;;;;35.75;21.25;;;6.70;99.90;;;;;;6207679;23;20483;-84
2021/12/25 02:03:00;;;;;;;35.90;19.85;;;6.70;99.90;;;;;;6209140;23;20028;-84
2021/12/25 02:05:48;;;;;;;38.75;21.17;;;6.70;99.90;;;;;;6234918;23;20028;-84
2021/12/25 02:08:42;;;;;;;36.97;21.05;;;6.70;99.90;;;;;;6216106;23;20092;-82
2021/12/25 02:11:31;;;;;;;38.00;22.45;;;6.70;99.90;;;;;;6237105;22;20119;-82
2021/12/25 02:14:18;;;;;;;37.63;21.25;;;6.70;99.90;;;;;;6195450;23;20020;-82
2021/12/25 02:17:17;;;;;;;38.42;22.23;;;6.70;99.90;;;;;;6198540;23;20040;-81
2021/12/25 02:20:17;;;;;;;38.10;22.33;;;6.80;99.90;;;;;;6215535;23;20031;-82
2021/12/25 02:23:19;;;;;;;45.92;22.90;;;6.80;99.90;;;;;;6229988;23;20067;-82
2021/12/25 02:26:08;;;;;;;37.80;22.00;;;6.80;99.90;;;;;;6209689;23;20029;-83
2021/12/25 02:28:56;;;;;;;39.50;22.25;;;6.80;99.90;;;;;;6229404;23;20051;-83
2021/12/25 02:31:44;;;;;;;45.85;23.40;;;6.70;99.90;;;;;;6196402;23;20324;-82
2021/12/25 02:34:32;;;;;;;40.65;21.50;;;6.70;99.90;;;;;;6204439;23;20055;-81
2021/12/25 02:37:21;;;;;;;45.80;22.42;;;6.70;99.90;;;;;;6182844;23;20119;-82
2021/12/25 02:40:09;;;;;;;44.83;22.25;;;6.80;99.90;;;;;;6202423;23;20028;-82
2021/12/25 02:42:58;;;;;;;51.22;23.45;;;6.70;99.90;;;;;;6200603;23;20036;-82
2021/12/25 02:45:46;;;;;;;44.67;23.08;;;6.70;99.90;;;;;;6198865;23;20086;-82
2021/12/25 02:48:37;;;;;;;39.88;22.40;;;6.70;99.90;;;;;;6182725;23;20107;-83
2021/12/25 02:51:25;;;;;;;41.13;22.77;;;6.70;99.90;;;;;;6223307;23;20079;-82
2021/12/25 02:54:16;;;;;;;44.58;22.50;;;6.70;99.90;;;;;;6201544;23;20020;-83
2021/12/25 02:57:06;;;;;;;43.67;23.15;;;6.70;99.90;;;;;;6200365;23;20051;-82
2021/12/25 02:59:56;;;;;;;44.50;22.77;;;6.70;99.90;;;;;;6204013;23;20035;-83
2021/12/25 03:02:44;;;;;;;42.53;22.10;;;6.70;99.90;;;;;;6200799;23;20082;-83
2021/12/25 03:05:38;;;;;;;42.38;22.30;;;6.70;99.90;;;;;;6212523;23;20296;-82
2021/12/25 03:08:25;;;;;;;43.40;22.20;;;6.70;99.90;;;;;;6202208;23;20028;-82
2021/12/25 03:11:15;;;;;;;44.83;22.52;;;6.60;99.90;;;;;;6182693;23;20086;-82
2021/12/25 03:14:23;;;;;;;43.45;22.60;;;6.70;99.90;;;;;;6223851;23;20021;-82
2021/12/25 03:17:12;;;;;;;40.10;20.23;;;6.60;99.90;;;;;;6191798;23;20021;-83
2021/12/25 03:20:00;;;;;;;45.63;22.90;;;6.60;99.90;;;;;;6191246;23;20036;-82
2021/12/25 03:22:53;;;;;;;40.65;20.92;;;6.60;99.90;;;;;;6211603;23;20047;-83
2021/12/25 03:25:44;;;;;;;46.20;20.67;;;6.60;99.90;;;;;;6184073;23;20028;-82
2021/12/25 03:28:38;;;;;;;46.90;23.25;;;6.60;99.90;;;;;;6200650;23;20055;-81
2021/12/25 03:31:27;;;;;;;40.72;21.63;;;6.60;99.90;;;;;;6222704;23;20427;-83
2021/12/25 03:34:14;;;;;;;46.00;22.58;;;6.60;99.90;;;;;;6200762;23;20024;-84
2021/12/25 03:37:07;;;;;;;47.58;22.38;;;6.60;99.90;;;;;;6162039;23;20025;-82
2021/12/25 03:39:54;;;;;;;46.33;22.35;;;6.60;99.90;;;;;;6222467;23;20329;-83
2021/12/25 03:42:48;;;;;;;46.70;24.02;;;6.60;99.90;;;;;;6181501;23;20059;-84
2021/12/25 03:45:36;;;;;;;45.22;23.95;;;6.60;99.90;;;;;;6202583;23;20044;-83
2021/12/25 03:57:37;;;;;;;39.40;20.45;;;6.50;99.90;;;;;;6191413;23;20047;-83
2021/12/25 04:00:30;;;;;;;41.83;21.27;;;6.60;99.90;;;;;;6206994;23;20427;-84
2021/12/25 04:03:26;;;;;;;50.03;23.17;;;6.60;99.90;;;;;;6184140;23;20088;-83
2021/12/25 04:06:17;;;;;;;47.10;23.88;;;6.60;99.90;;;;;;6203934;23;20051;-82
2021/12/25 04:09:13;;;;;;;60.13;25.90;;;6.50;99.90;;;;;;6224534;23;20040;-83
2021/12/25 04:12:04;;;;;;;58.45;26.60;;;6.50;99.90;;;;;;6204901;23;20028;-82
2021/12/25 04:14:53;;;;;;;67.03;29.60;;;6.40;99.90;;;;;;6215803;23;20339;-82
2021/12/25 04:17:40;;;;;;;81.95;27.77;;;6.40;99.90;;;;;;6213044;23;20120;-83
2021/12/25 04:20:29;;;;;;;58.03;25.98;;;6.30;99.90;;;;;;6170799;23;20071;-83
2021/12/25 04:23:23;;;;;;;59.53;27.25;;;6.30;99.90;;;;;;6190712;23;20040;-81
2021/12/25 04:26:14;;;;;;;59.08;27.15;;;6.30;99.90;;;;;;6193813;23;20343;-85
2021/12/25 04:29:19;;;;;;;57.35;26.13;;;6.30;99.90;;;;;;6193829;23;20447;-84
2021/12/25 05:05:40;;;;;;;49.50;22.23;;;6.20;99.90;;;;;;6193236;23;20027;-86
2021/12/25 05:08:30;;;;;;;47.83;23.25;;;6.20;99.90;;;;;;6172308;23;20029;-82
2021/12/25 05:11:18;;;;;;;51.22;24.23;;;6.20;99.90;;;;;;6193494;23;20025;-84
2021/12/25 05:14:12;;;;;;;58.28;24.83;;;6.20;99.90;;;;;;6195966;23;20408;-80
2021/12/25 05:17:05;;;;;;;63.78;26.63;;;6.10;99.90;;;;;;6192670;23;20031;-83
2021/12/25 05:19:55;;;;;;;58.73;25.63;;;6.20;99.90;;;;;;6194327;23;20054;-81
2021/12/25 05:22:43;;;;;;;59.35;25.23;;;6.20;99.90;;;;;;6216943;23;20297;-82
2021/12/25 05:25:34;;;;;;;63.35;26.75;;;6.20;99.90;;;;;;6171850;23;20032;-81
2021/12/25 05:28:26;;;;;;;60.63;26.13;;;6.20;99.90;;;;;;6195138;23;20028;-82
2021/12/25 05:31:15;;;;;;;62.85;26.40;;;6.20;99.90;;;;;;6218663;23;20032;-82
2021/12/25 05:34:03;;;;;;;61.08;26.60;;;6.20;99.90;;;;;;6197121;23;20025;-83
2021/12/25 05:36:53;;;;;;;66.20;28.98;;;6.20;99.90;;;;;;6198535;23;20397;-82
2021/12/25 05:39:43;;;;;;;63.67;27.70;;;6.20;99.90;;;;;;6197330;23;20028;-84
2021/12/25 05:42:31;;;;;;;73.78;29.98;;;6.20;99.90;;;;;;6217761;23;20083;-84
2021/12/25 05:45:19;;;;;;;73.40;31.20;;;6.20;99.90;;;;;;6218950;22;20042;-84
2021/12/25 05:48:07;;;;;;;82.18;33.03;;;6.30;99.90;;;;;;6195020;23;20024;-83
2021/12/25 05:50:58;;;;;;;77.60;33.83;;;6.30;99.90;;;;;;6224844;23;20052;-82
2021/12/25 05:53:48;;;;;;;88.80;37.08;;;6.20;99.90;;;;;;6211511;23;20024;-84
2021/12/25 05:56:35;;;;;;;98.53;38.95;;;6.20;99.90;;;;;;6207946;23;20024;-83
2021/12/25 05:59:22;;;;;;;91.85;39.33;;;6.20;99.90;;;;;;6240000;23;20078;-84
2021/12/25 06:02:12;;;;;;;99.68;39.90;;;6.20;99.90;;;;;;6198244;23;20046;-83
2021/12/25 06:05:03;;;;;;;97.38;39.88;;;6.20;99.90;;;;;;6199236;23;20052;-83
2021/12/25 06:07:50;;;;;;;103.35;41.28;;;6.20;99.90;;;;;;6216899;23;20051;-82
2021/12/25 06:10:38;;;;;;;96.70;41.50;;;6.20;99.90;;;;;;6216799;23;20016;-84
2021/12/25 06:13:27;;;;;;;102.03;41.65;;;6.20;99.90;;;;;;6194039;23;20029;-82
2021/12/25 06:16:15;;;;;;;89.95;38.65;;;6.20;99.90;;;;;;6210768;23;20044;-83
2021/12/25 06:19:03;;;;;;;104.13;38.40;;;6.20;99.90;;;;;;6210451;23;20084;-83
2021/12/25 06:21:56;;;;;;;91.10;37.50;;;6.20;99.90;;;;;;6232867;23;20024;-82
2021/12/25 06:24:49;;;;;;;78.82;35.55;;;6.20;99.90;;;;;;6232367;23;20032;-82
2021/12/25 06:27:40;;;;;;;84.28;34.92;;;6.30;99.90;;;;;;6212908;23;20063;-84
2021/12/25 06:30:27;;;;;;;85.57;35.28;;;6.40;99.90;;;;;;6231003;23;20123;-82
2021/12/25 06:42:06;;;;;;;62.45;29.52;;;6.40;99.90;;;;;;6218113;23;20068;-84
2021/12/25 07:01:38;;;;;;;63.53;29.42;;;6.60;99.90;;;;;;6152266;23;20319;-85
2021/12/25 07:04:27;;;;;;;54.20;27.02;;;6.60;99.90;;;;;;6177390;23;20032;-82
2021/12/25 07:07:17;;;;;;;58.53;28.42;;;6.60;99.90;;;;;;6212779;23;20032;-83
2021/12/25 07:10:09;;;;;;;51.30;26.58;;;6.70;99.90;;;;;;6191979;23;20076;-82
2021/12/25 07:12:56;;;;;;;59.22;26.75;;;6.60;99.90;;;;;;6190809;23;20107;-82
2021/12/25 07:15:48;;;;;;;51.25;25.52;;;6.70;99.90;;;;;;6213334;23;20036;-81
2021/12/25 07:18:36;;;;;;;58.22;27.30;;;6.70;99.90;;;;;;6211767;23;20024;-83
2021/12/25 07:21:24;;;;;;;49.53;26.17;;;6.70;99.90;;;;;;6213661;23;20051;-84
2021/12/25 07:24:13;;;;;;;53.85;27.58;;;6.70;99.90;;;;;;6190852;23;20438;-82
2021/12/25 07:27:05;;;;;;;55.67;27.02;;;6.70;99.90;;;;;;6191568;23;20344;-81
2021/12/25 07:29:53;;;;;;;54.92;27.95;;;6.60;99.90;;;;;;6205233;23;20036;-79
2021/12/25 07:32:41;;;;;;;52.95;26.33;;;6.60;99.90;;;;;;6172124;23;20064;-82
2021/12/25 07:35:31;;;;;;;47.72;26.02;;;6.60;99.90;;;;;;6174204;23;20029;-81
2021/12/25 07:38:27;;;;;;;51.05;26.10;;;6.60;99.90;;;;;;6194209;23;20039;-81
2021/12/25 07:41:14;;;;;;;50.83;25.85;;;6.70;99.90;;;;;;6192970;23;20043;-79
2021/12/25 07:44:01;;;;;;;53.30;25.95;;;6.70;99.90;;;;;;6195008;23;20024;-81
2021/12/25 07:46:49;;;;;;;54.72;26.70;;;6.70;99.90;;;;;;6194971;23;20723;-82
2021/12/25 07:49:37;;;;;;;56.20;26.73;;;6.70;99.90;;;;;;6178144;23;20035;-79
2021/12/25 07:52:26;;;;;;;56.35;26.60;;;6.70;99.90;;;;;;6204839;23;20032;-79
2021/12/25 07:58:42;;;;;;;53.10;25.40;;;6.70;99.90;;;;;;6224698;23;20055;-79
2021/12/25 08:06:00;;;;;;;49.00;25.55;;;6.80;99.90;;;;;;6217797;23;20001;-81
2021/12/25 08:09:11;;;;;;;45.70;23.02;;;6.80;99.90;;;;;;6155012;23;20026;-82
2021/12/25 08:12:39;;;;;;;43.63;23.50;;;6.80;99.90;;;;;;6155442;23;20041;-83
2021/12/25 08:15:30;;;;;;;48.15;23.40;;;6.90;99.90;;;;;;6126967;23;20168;-82
2021/12/25 08:47:50;;;;;;;40.92;22.17;;;7.10;99.90;;;;;;5948486;24;20286;-83
2021/12/25 08:50:57;;;;;;;44.65;21.23;;;7.10;99.90;;;;;;5944829;23;20036;-82
2021/12/25 09:02:48;;;;;;;37.40;18.85;;;7.20;99.90;;;;;;5983900;24;20012;-81
2021/12/25 09:18:20;;;;;;;29.48;16.23;;;7.50;99.90;;;;;;6037406;23;20021;-81
2021/12/25 10:12:51;;;;;;;12.73;7.38;;;8.30;99.90;;;;;;6187390;23;20193;-82
2021/12/25 10:24:28;;;;;;;16.30;7.68;;;8.20;99.90;;;;;;6136949;23;20565;-81
2021/12/25 10:27:22;;;;;;;13.90;8.70;;;8.20;99.90;;;;;;6189809;23;20025;-81
2021/12/25 10:30:10;;;;;;;11.57;8.45;;;8.20;99.90;;;;;;6172046;23;20041;-81
2021/12/25 10:32:57;;;;;;;13.57;9.27;;;8.30;99.90;;;;;;6155097;23;20048;-81
2021/12/25 10:35:47;;;;;;;15.95;9.48;;;8.30;99.90;;;;;;6158695;23;20027;-81
2021/12/25 10:38:37;;;;;;;20.95;10.38;;;8.40;99.90;;;;;;6180345;23;20039;-82
2021/12/25 10:41:28;;;;;;;16.85;9.18;;;8.50;99.90;;;;;;6229466;23;20052;-83
2021/12/25 10:44:20;;;;;;;18.35;9.88;;;8.60;99.90;;;;;;6234340;23;20032;-81
2021/12/25 10:47:10;;;;;;;13.25;8.35;;;8.60;99.90;;;;;;6234892;23;20450;-81
2021/12/25 10:50:14;;;;;;;13.32;7.78;;;8.60;99.90;;;;;;6228308;23;20076;-81
2021/12/25 10:53:05;;;;;;;13.57;7.78;;;8.70;99.90;;;;;;6226883;23;20094;-81
2021/12/25 10:56:04;;;;;;;10.70;6.70;;;8.80;99.90;;;;;;6199964;23;20107;-82
2021/12/25 10:59:03;;;;;;;11.43;5.47;;;9.10;99.90;;;;;;6199667;23;20408;-81
2021/12/25 11:01:51;;;;;;;7.78;4.35;;;9.80;99.90;;;;;;6218426;23;20035;-81
2021/12/25 11:04:39;;;;;;;7.95;4.30;;;10.20;99.90;;;;;;6217027;23;20331;-81
2021/12/25 11:07:26;;;;;;;5.55;2.92;;;10.30;99.90;;;;;;6177207;23;20032;-80
2021/12/25 11:10:19;;;;;;;5.38;2.92;;;10.40;99.90;;;;;;6197227;23;20024;-83
2021/12/25 11:13:24;;;;;;;3.20;2.60;;;10.40;99.90;;;;;;6218975;23;20028;-81
2021/12/25 11:16:12;;;;;;;2.92;2.63;;;10.70;99.90;;;;;;6220718;23;20124;-81
2021/12/25 11:21:52;;;;;;;3.72;2.17;;;11.00;99.90;;;;;;6217538;23;20035;-81
2021/12/25 11:24:43;;;;;;;2.22;1.80;;;11.00;99.90;;;;;;6195229;23;20024;-81
2021/12/25 11:27:32;;;;;;;1.77;1.60;;;11.10;99.90;;;;;;6196868;23;20029;-81
2021/12/25 11:30:25;;;;;;;1.77;1.42;;;11.00;99.90;;;;;;6219448;23;20025;-81
2021/12/25 11:33:15;;;;;;;3.75;1.60;;;11.00;99.90;;;;;;6198837;23;20029;-81
2021/12/25 11:36:03;;;;;;;3.03;1.50;;;11.00;99.90;;;;;;6199264;23;20029;-80
2021/12/25 11:38:54;;;;;;;1.42;1.33;;;10.60;99.90;;;;;;6200325;23;20025;-80
2021/12/25 11:41:45;;;;;;;2.83;2.00;;;10.40;99.90;;;;;;6182559;23;20028;-81
2021/12/25 11:44:45;;;;;;;4.22;1.90;;;10.10;99.90;;;;;;6201424;23;20025;-80
2021/12/25 11:47:40;;;;;;;3.47;2.10;;;9.70;99.90;;;;;;6198782;23;20032;-80
2021/12/25 11:50:41;;;;;;;7.57;2.65;;;9.60;99.90;;;;;;6200206;23;20043;-81
2021/12/25 11:54:07;;;;;;;4.45;2.97;;;9.50;99.90;;;;;;6199464;23;20020;-80
2021/12/25 11:57:21;;;;;;;5.20;3.28;;;9.30;99.90;;;;;;6218361;23;20071;-81
2021/12/25 12:00:12;;;;;;;5.47;3.55;;;9.20;99.90;;;;;;6197532;23;20097;-83
2021/12/25 12:03:01;;;;;;;8.40;3.90;;;9.10;99.90;;;;;;6176931;23;20028;-82
2021/12/25 12:05:51;;;;;;;4.80;3.03;;;9.10;99.90;;;;;;6196958;23;20031;-81
2021/12/25 12:08:54;;;;;;;6.72;3.08;;;9.10;99.90;;;;;;6197821;23;20031;-82
2021/12/25 12:11:45;;;;;;;4.13;2.83;;;9.10;99.90;;;;;;6193497;23;20257;-83
2021/12/25 12:14:32;;;;;;;3.20;2.45;;;9.10;99.90;;;;;;6193443;23;20024;-81
2021/12/25 12:17:22;;;;;;;2.72;2.17;;;9.10;99.90;;;;;;6213238;23;20111;-83
2021/12/25 12:20:16;;;;;;;3.88;2.17;;;9.00;99.90;;;;;;6192876;23;20051;-82
2021/12/25 12:23:33;;;;;;;3.95;2.67;;;9.00;99.90;;;;;;6192048;23;20028;-82
2021/12/25 12:26:48;;;;;;;3.20;2.80;;;9.00;99.90;;;;;;6211779;23;20043;-82
2021/12/25 12:29:38;;;;;;;4.63;3.30;;;8.90;99.90;;;;;;6191119;23;20024;-82
2021/12/25 12:32:43;;;;;;;5.97;3.10;;;8.90;99.90;;;;;;6212278;23;20039;-82
2021/12/25 12:35:37;;;;;;;3.90;2.90;;;8.90;99.90;;;;;;6191966;23;20878;-83
2021/12/25 12:38:43;;;;;;;3.80;2.70;;;8.90;99.90;;;;;;6191058;23;20091;-82
2021/12/25 12:41:38;;;;;;;3.63;2.80;;;8.90;99.90;;;;;;6190414;23;20033;-82
2021/12/25 12:44:30;;;;;;;3.53;2.42;;;8.90;99.90;;;;;;6192068;23;20059;-82
2021/12/25 12:47:22;;;;;;;2.95;2.40;;;9.00;99.90;;;;;;6190182;23;20039;-82
2021/12/25 12:50:11;;;;;;;4.60;2.80;;;9.10;99.90;;;;;;6191150;23;20155;-81
2021/12/25 12:53:01;;;;;;;4.35;2.97;;;9.10;99.90;;;;;;6191860;23;20025;-81
2021/12/25 12:55:52;;;;;;;5.78;3.60;;;9.10;99.90;;;;;;6192424;23;20040;-82
2021/12/25 12:58:51;;;;;;;5.70;2.60;;;9.00;99.90;;;;;;6191379;23;20024;-82
2021/12/25 13:01:41;;;;;;;5.22;3.00;;;9.00;99.90;;;;;;6192109;23;20032;-83
2021/12/25 13:04:48;;;;;;;4.65;3.30;;;9.00;99.90;;;;;;6173287;23;20054;-83
2021/12/25 13:07:43;;;;;;;3.47;2.78;;;8.90;99.90;;;;;;6191142;23;20032;-83
2021/12/25 13:13:55;;;;;;;7.05;4.32;;;8.90;99.90;;;;;;6203411;23;20024;-83
2021/12/25 13:16:44;;;;;;;6.43;4.75;;;9.00;99.90;;;;;;6190316;23;20048;-82
2021/12/25 13:19:46;;;;;;;6.43;4.65;;;9.10;99.90;;;;;;6189626;23;20032;-82
2021/12/25 13:22:40;;;;;;;8.38;4.55;;;9.10;99.90;;;;;;6210804;23;20029;-83
2021/12/25 13:25:29;;;;;;;6.70;4.13;;;9.20;99.90;;;;;;6190218;23;20060;-83
2021/12/25 13:28:26;;;;;;;8.82;5.03;;;9.20;99.90;;;;;;6190735;23;20100;-82
2021/12/25 13:31:22;;;;;;;6.90;4.68;;;9.10;99.90;;;;;;6202251;23;20036;-83
2021/12/25 13:34:23;;;;;;;7.30;5.25;;;9.00;99.90;;;;;;6204214;23;20079;-83
2021/12/25 13:37:16;;;;;;;8.82;6.20;;;8.90;99.90;;;;;;6193971;23;20030;-83
2021/12/25 13:40:14;;;;;;;9.60;7.20;;;8.80;99.90;;;;;;6193890;23;20399;-83
2021/12/25 13:43:08;;;;;;;12.07;8.63;;;8.70;99.90;;;;;;6194978;23;20107;-84
2021/12/25 13:45:58;;;;;;;13.48;9.45;;;8.60;99.90;;;;;;6214923;23;20094;-83
2021/12/25 13:48:49;;;;;;;14.48;9.98;;;8.60;99.90;;;;;;6175608;23;20032;-83
2021/12/25 13:51:42;;;;;;;17.35;10.85;;;8.50;99.90;;;;;;6228021;23;20042;-83
2021/12/25 13:54:33;;;;;;;18.52;13.45;;;8.50;99.90;;;;;;6207562;23;20029;-83
2021/12/25 13:57:23;;;;;;;20.98;13.80;;;8.40;99.90;;;;;;6205207;23;20036;-82
2021/12/25 14:00:17;;;;;;;24.85;14.63;;;8.40;99.90;;;;;;6226058;23;20024;-83
2021/12/25 14:03:10;;;;;;;24.13;15.23;;;8.40;99.90;;;;;;6207222;23;20076;-83
2021/12/25 14:06:00;;;;;;;19.33;13.52;;;8.30;99.90;;;;;;6228588;23;20033;-83
2021/12/25 14:08:47;;;;;;;26.67;14.85;;;8.30;99.90;;;;;;6192094;23;20020;-82
2021/12/25 14:11:34;;;;;;;22.27;13.98;;;8.30;99.90;;;;;;6210411;23;20028;-82
2021/12/25 14:14:24;;;;;;;23.20;14.27;;;8.30;99.90;;;;;;6197946;23;20012;-83
2021/12/25 14:17:14;;;;;;;23.92;16.33;;;8.30;99.90;;;;;;6217312;23;20021;-82
2021/12/25 14:20:25;;;;;;;21.33;13.82;;;8.30;99.90;;;;;;6235304;23;20092;-83
2021/12/25 14:23:19;;;;;;;19.73;13.00;;;8.30;99.90;;;;;;6238652;22;20047;-83
2021/12/25 14:26:07;;;;;;;19.58;12.65;;;8.30;99.90;;;;;;6214131;23;20408;-81
2021/12/25 14:28:55;;;;;;;21.38;13.13;;;8.40;99.90;;;;;;6213598;23;20039;-83
2021/12/25 14:31:42;;;;;;;18.60;12.70;;;8.40;99.90;;;;;;6209995;23;20052;-83
2021/12/25 14:34:33;;;;;;;19.38;12.52;;;8.30;99.90;;;;;;6215273;23;20032;-82
2021/12/25 14:37:36;;;;;;;18.60;13.20;;;8.30;99.90;;;;;;6213917;23;20029;-82
2021/12/25 14:40:30;;;;;;;18.45;12.35;;;8.30;99.90;;;;;;6185163;23;20424;-83
2021/12/25 14:43:28;;;;;;;18.17;12.50;;;8.40;99.90;;;;;;6229122;23;20031;-84
2021/12/25 14:46:20;;;;;;;23.38;12.88;;;8.40;99.90;;;;;;6225157;23;20036;-84
2021/12/25 14:49:07;;;;;;;20.17;12.95;;;8.40;99.90;;;;;;6181629;23;20082;-84
2021/12/25 14:52:00;;;;;;;20.52;13.65;;;8.40;99.90;;;;;;6194405;23;20025;-83
2021/12/25 14:54:51;;;;;;;19.25;14.23;;;8.30;99.90;;;;;;6203895;23;20023;-82
2021/12/25 14:57:43;;;;;;;22.17;14.77;;;8.20;99.90;;;;;;6231361;23;20025;-82
2021/12/25 15:00:31;;;;;;;25.10;15.73;;;8.20;99.90;;;;;;6184057;23;20082;-83
2021/12/25 15:03:22;;;;;;;22.90;15.48;;;8.10;99.90;;;;;;6220943;23;20099;-82
2021/12/25 15:06:23;;;;;;;23.77;16.30;;;8.10;99.90;;;;;;6200588;23;20149;-83
2021/12/25 15:09:19;;;;;;;26.05;16.52;;;8.00;99.90;;;;;;6219615;23;20029;-83
2021/12/25 15:12:13;;;;;;;26.75;15.70;;;8.00;99.90;;;;;;6197659;23;20143;-82
2021/12/25 15:15:38;;;;;;;26.10;17.58;;;7.90;99.90;;;;;;6128991;23;20069;-83
2021/12/25 15:18:41;;;;;;;30.45;19.42;;;7.90;99.90;;;;;;6126780;23;20351;-83
2021/12/25 15:21:28;;;;;;;29.17;19.35;;;7.90;99.90;;;;;;6125228;23;20030;-82
2021/12/25 15:24:18;;;;;;;31.60;19.63;;;7.90;99.90;;;;;;6105825;23;20382;-81
2021/12/25 15:27:07;;;;;;;58.60;27.85;;;7.80;99.90;;;;;;6122594;23;20085;-84
2021/12/25 15:30:04;;;;;;;35.25;18.63;;;7.80;99.90;;;;;;6105433;23;20026;-82
2021/12/25 15:32:57;;;;;;;31.48;17.80;;;7.80;99.90;;;;;;6101211;23;20091;-82
2021/12/25 15:35:47;;;;;;;34.38;23.05;;;7.70;99.90;;;;;;6121832;23;20092;-82
2021/12/25 15:38:39;;;;;;;16.40;10.73;;;7.70;99.90;;;;;;6136021;23;20081;-82
2021/12/25 15:41:26;;;;;;;13.48;8.98;;;7.70;99.90;;;;;;6114983;23;20054;-82
2021/12/25 15:44:16;;;;;;;11.77;9.07;;;7.70;99.90;;;;;;6135634;23;20464;-82
2021/12/25 15:47:03;;;;;;;14.13;9.70;;;7.60;99.90;;;;;;6223179;23;20107;-82
2021/12/25 15:49:51;;;;;;;13.50;9.77;;;7.60;99.90;;;;;;6191748;23;20013;-80
2021/12/25 15:52:40;;;;;;;19.60;11.88;;;7.50;99.90;;;;;;6212453;23;20020;-81
2021/12/25 15:55:33;;;;;;;16.85;11.68;;;7.50;99.90;;;;;;6213211;23;20071;-82
2021/12/25 15:58:22;;;;;;;15.18;10.07;;;7.40;99.90;;;;;;6212141;23;20043;-81
2021/12/25 16:01:14;;;;;;;20.38;11.43;;;7.40;99.90;;;;;;6211986;23;20455;-80
2021/12/25 16:04:07;;;;;;;17.88;11.52;;;7.40;99.90;;;;;;6211390;23;20036;-84
2021/12/25 16:06:57;;;;;;;;;;;7.30;99.90;;;;;;6195329;23;20099;-82
2021/12/25 16:09:44;;;;;;;22.20;12.68;;;7.30;99.90;;;;;;6215730;22;19924;-80
2021/12/25 16:12:32;;;;;;;21.13;15.00;;;7.30;99.90;;;;;;6190941;23;20025;-82
2021/12/25 16:15:21;;;;;;;25.30;17.15;;;7.30;99.90;;;;;;6175370;23;20292;-83
2021/12/25 16:18:14;;;;;;;47.80;30.17;;;7.30;99.90;;;;;;6193177;23;20396;-83
2021/12/25 16:21:03;;;;;;;57.50;35.95;;;7.30;99.90;;;;;;6192708;23;20028;-83
2021/12/25 16:23:50;;;;;;;26.30;18.33;;;7.30;99.90;;;;;;6191484;23;20024;-83
2021/12/25 16:26:41;;;;;;;24.10;15.60;;;7.20;99.90;;;;;;6192869;23;20025;-84
2021/12/25 16:29:31;;;;;;;26.50;17.05;;;7.20;99.90;;;;;;6194236;23;20034;-85
2021/12/25 16:32:21;;;;;;;28.05;15.90;;;7.20;99.90;;;;;;6171339;23;20432;-85
2021/12/25 16:35:11;;;;;;;23.85;15.60;;;7.10;99.90;;;;;;6214259;23;20110;-84
2021/12/25 16:38:00;;;;;;;26.33;15.63;;;7.10;99.90;;;;;;6192181;23;20025;-81
2021/12/25 16:40:50;;;;;;;24.88;16.10;;;7.10;99.90;;;;;;6151897;23;20028;-84
2021/12/25 16:43:40;;;;;;;23.77;16.38;;;7.00;99.90;;;;;;6193187;23;20052;-83
2021/12/25 16:46:31;;;;;;;25.98;15.07;;;7.00;99.90;;;;;;6214996;23;20036;-85
2021/12/25 16:49:24;;;;;;;26.30;17.05;;;7.00;99.90;;;;;;6194071;23;20086;-84
2021/12/25 16:52:14;;;;;;;26.60;16.55;;;7.00;99.90;;;;;;6215092;23;20051;-84
2021/12/25 16:55:04;;;;;;;29.90;16.63;;;7.00;99.90;;;;;;6193199;23;20024;-83
2021/12/25 16:57:54;;;;;;;28.08;16.05;;;7.00;99.90;;;;;;6192655;23;20119;-83
2021/12/25 17:00:56;;;;;;;31.17;17.02;;;7.00;99.90;;;;;;6162923;23;20073;-84
2021/12/25 17:03:45;;;;;;;30.35;20.02;;;7.00;99.90;;;;;;6196580;23;20053;-81
2021/12/25 17:06:36;;;;;;;37.92;21.58;;;7.00;99.90;;;;;;6196105;23;20067;-85
2021/12/25 17:09:27;;;;;;;37.05;20.30;;;7.00;99.90;;;;;;6195219;23;20032;-84
2021/12/25 17:12:15;;;;;;;36.10;23.27;;;7.00;99.90;;;;;;6192554;23;20094;-86
2021/12/25 17:15:12;;;;;;;45.63;26.27;;;7.00;99.90;;;;;;6163784;23;20028;-83
2021/12/25 17:18:09;;;;;;;42.92;23.98;;;7.00;99.90;;;;;;6200517;23;20035;-85
2021/12/25 17:20:58;;;;;;;39.30;23.30;;;7.10;99.90;;;;;;6175500;23;20025;-84
2021/12/25 17:23:45;;;;;;;42.55;24.02;;;7.10;99.90;;;;;;6193909;23;20104;-84
2021/12/25 17:26:35;;;;;;;47.00;26.52;;;7.00;99.90;;;;;;6186385;23;20024;-83
2021/12/25 17:29:23;;;;;;;44.72;27.33;;;7.00;99.90;;;;;;6226169;23;20289;-83
2021/12/25 17:32:17;;;;;;;45.40;26.48;;;7.00;99.90;;;;;;6195550;23;20384;-85
2021/12/25 17:35:07;;;;;;;46.40;26.83;;;7.00;99.90;;;;;;6198363;23;20024;-84
2021/12/25 17:38:09;;;;;;;43.53;25.38;;;7.00;99.90;;;;;;6199058;23;20032;-83
2021/12/25 17:41:04;;;;;;;37.22;22.50;;;7.00;99.90;;;;;;6196783;23;20096;-83
2021/12/25 17:43:52;;;;;;;35.20;21.45;;;7.00;99.90;;;;;;6196922;23;20040;-83
2021/12/25 17:46:41;;;;;;;33.85;22.15;;;7.00;99.90;;;;;;6178387;23;20043;-83
2021/12/25 17:49:31;;;;;;;42.30;24.52;;;7.00;99.90;;;;;;6194084;23;20028;-84
2021/12/25 17:52:34;;;;;;;38.88;23.83;;;7.00;99.90;;;;;;6199214;23;20104;-85
2021/12/25 17:55:22;;;;;;;35.95;23.08;;;7.10;99.90;;;;;;6179720;23;20031;-85
2021/12/25 17:58:14;;;;;;;46.40;26.80;;;7.10;99.90;;;;;;6198671;23;20024;-85
2021/12/25 18:01:02;;;;;;;42.25;25.45;;;7.00;99.90;;;;;;6177738;23;20111;-85
2021/12/25 18:03:53;;;;;;;45.03;26.38;;;7.00;99.90;;;;;;6196604;23;20055;-84
2021/12/25 18:06:40;;;;;;;53.67;29.85;;;7.00;99.90;;;;;;6187362;23;20047;-85
2021/12/25 18:09:29;;;;;;;60.30;28.92;;;6.90;99.90;;;;;;6196283;23;20044;-84
2021/12/25 18:12:19;;;;;;;289.48;34.28;;;6.90;99.90;;;;;;6195409;23;20102;-85
2021/12/25 18:15:10;;;;;;;63.22;29.08;;;6.90;99.90;;;;;;6176643;23;20052;-84
2021/12/25 18:18:11;;;;;;;159.68;33.33;;;6.90;99.90;;;;;;6198570;23;20498;-86
2021/12/25 18:21:04;;;;;;;252.23;40.30;;;6.90;99.90;;;;;;6177276;23;20035;-84
2021/12/25 18:24:18;;;;;;;346.20;43.88;;;6.90;99.90;;;;;;6197970;23;20135;-85
2021/12/25 18:27:31;;;;;;;127.88;35.17;;;6.90;99.90;;;;;;6107372;23;20139;-85
2021/12/25 18:30:21;;;;;;;377.33;46.60;;;6.80;99.90;;;;;;6104987;23;20026;-86
2021/12/25 18:33:14;;;;;;;245.40;40.35;;;6.80;99.90;;;;;;6104503;23;20025;-85